Archival Weather

Chicago O'Hare International

Chicago, Illinois (KORD)

Report from: Sunday, February 5, 2023 10:51 AM CST
Current time: Friday, April 19, 2024 3:28 AM CDT

Current weather – Weather history – Daily summaries
Weather forecast

Temperature3.9°C (39.0°F)
Wind chill-0.1°C (31.8°F)
Dew point-1.7°C (28.9°F)
Winds 10 kts (5.1 m/s, 11.5 mph) West-Southwest (250°)
Visibility10 mi. (16.1 km)
Clouds Scattered clouds 25,000 ft. (7,620 m)
Altimeter29.85 in.Hg (1011 mB)
Relative humidity67 %
Density altitude-1,195 ft. (-364 m)
Sea-level pressure101.1 kPa (1011 mB, 29.86 in.Hg)
Remarks System requires maintenance
Automated weather observing station with precipitation discriminator
Flight conditions Visual Meteorological Conditions
Raw dataKORD 051651Z 25010KT 10SM SCT250 04/M02 A2985 RMK AO2 SLP113 T00391017 $
An error has occurred. This application may no longer respond until reloaded. Reload 🗙